Time;durP1;ratioP1;P1;durP2;ratioP2;P2;SDS_P1;SDS_P2;PMS_P1;PMS_P2;Temp;Humidity;BMP_temperature;BMP_pressure;BME280_temperature;BME280_humidity;BME280_pressure;Samples;Min_cycle;Max_cycle;Signal;HPM_P1;HPM_P2
2022/06/26 00:00:11;;;;;;;13.93;6.57;;;;;;;20.19;56.43;100375.86;123728;1099;104354;-81
2022/06/26 00:03:03;;;;;;;15.37;6.77;;;;;;;20.17;56.05;100367.88;123632;1098;104351;-80
2022/06/26 00:05:34;;;;;;;11.80;6.87;;;;;;;20.18;56.13;100371.42;123732;1099;104277;-81
2022/06/26 00:08:07;;;;;;;15.60;6.90;;;;;;;20.21;55.97;100368.73;123743;1098;104290;-81
2022/06/26 00:10:39;;;;;;;13.70;7.00;;;;;;;20.21;56.70;100366.07;123682;1099;104290;-80
2022/06/26 00:13:11;;;;;;;14.17;6.53;;;;;;;20.22;55.86;100367.85;123741;1099;104293;-80
2022/06/26 00:15:42;;;;;;;12.63;6.53;;;;;;;20.17;56.15;100370.55;123751;1099;104238;-79
2022/06/26 00:18:14;;;;;;;13.80;6.70;;;;;;;20.16;56.91;100373.22;123799;1099;104717;-81
2022/06/26 00:20:46;;;;;;;13.90;6.43;;;;;;;20.14;56.07;100372.34;123801;1099;104350;-81
2022/06/26 00:23:17;;;;;;;10.27;6.37;;;;;;;20.14;56.60;100369.69;123427;1099;104367;-80
2022/06/26 00:25:49;;;;;;;14.27;6.70;;;;;;;20.15;56.96;100371.44;123773;1099;104178;-80
2022/06/26 00:28:20;;;;;;;12.10;6.63;;;;;;;20.15;56.46;100368.77;123486;1102;104377;-80
2022/06/26 00:30:52;;;;;;;11.60;6.27;;;;;;;20.14;56.26;100380.34;123703;1102;104251;-80
2022/06/26 00:33:24;;;;;;;12.70;6.07;;;;;;;20.09;56.85;100383.91;123852;1099;104249;-82
2022/06/26 00:35:56;;;;;;;9.93;5.90;;;;;;;20.07;56.84;100382.13;123590;1099;104504;-81
2022/06/26 00:38:27;;;;;;;16.33;7.00;;;;;;;20.05;57.03;100376.81;123987;1099;104242;-81
2022/06/26 00:40:59;;;;;;;14.10;6.33;;;;;;;20.03;57.29;100372.41;123857;1099;104267;-82
2022/06/26 00:43:31;;;;;;;14.65;6.10;;;;;;;20.02;57.00;100379.48;123937;1099;105245;-81
2022/06/26 00:46:06;;;;;;;12.90;6.50;;;;;;;19.99;56.84;100382.20;123289;1099;104341;-81
2022/06/26 00:48:39;;;;;;;12.83;6.27;;;;;;;19.94;56.92;100378.65;123887;1099;104268;-80
2022/06/26 00:51:11;;;;;;;11.70;6.30;;;;;;;19.90;57.03;100375.13;123938;1099;104264;-80
2022/06/26 00:53:42;;;;;;;18.57;7.20;;;;;;;19.80;57.85;100385.82;123895;1099;104267;-80
2022/06/26 00:56:14;;;;;;;18.00;7.37;;;;;;;19.72;57.63;100383.16;123898;1099;104320;-79
2022/06/26 00:58:47;;;;;;;15.73;7.93;;;;;;;19.62;57.63;100376.08;123977;1099;104249;-81
2022/06/26 01:01:18;;;;;;;18.27;8.70;;;;;;;19.56;57.40;100375.22;123812;1099;104434;-80
2022/06/26 01:03:50;;;;;;;19.93;8.73;;;;;;;19.55;57.39;100380.55;123885;1099;104236;-81
2022/06/26 01:06:22;;;;;;;18.20;8.83;;;;;;;19.52;57.80;100381.43;123904;1099;110453;-81
2022/06/26 01:08:56;;;;;;;20.07;9.23;;;;;;;19.50;58.33;100382.34;123988;1099;104252;-81
2022/06/26 01:11:29;;;;;;;18.77;10.10;;;;;;;19.44;58.27;100393.00;123633;1099;104424;-81
2022/06/26 01:14:01;;;;;;;17.03;8.70;;;;;;;19.38;58.17;100391.23;123530;1102;104415;-81
2022/06/26 01:16:32;;;;;;;19.45;9.40;;;;;;;19.22;58.81;100390.38;123516;1102;104300;-81
2022/06/26 01:19:05;;;;;;;17.60;9.30;;;;;;;19.02;58.53;100406.35;123741;1099;104724;-80
2022/06/26 01:21:37;;;;;;;19.10;9.30;;;;;;;18.86;58.72;100401.03;123566;1099;104273;-81
2022/06/26 01:24:10;;;;;;;18.67;10.13;;;;;;;18.77;58.96;100413.41;123516;1099;104303;-81
2022/06/26 01:26:41;;;;;;;20.47;10.10;;;;;;;18.69;59.21;100413.41;123868;1099;104332;-80
2022/06/26 01:29:13;;;;;;;20.57;10.00;;;;;;;18.56;59.61;100398.31;123536;1102;104201;-80
2022/06/26 01:31:46;;;;;;;17.73;9.47;;;;;;;18.52;60.75;100417.81;123466;1102;104418;-80
2022/06/26 01:34:17;;;;;;;17.07;9.30;;;;;;;18.39;60.68;100417.79;123599;1102;104434;-80
2022/06/26 01:36:49;;;;;;;19.33;9.27;;;;;;;18.31;60.84;100419.55;123525;1102;119769;-80
2022/06/26 01:39:22;;;;;;;19.77;9.40;;;;;;;18.21;61.06;100415.95;123549;1102;104585;-80
2022/06/26 01:41:54;;;;;;;17.42;9.95;;;;;;;18.12;61.50;100421.23;123584;1102;104450;-79
2022/06/26 01:44:26;;;;;;;18.70;9.80;;;;;;;18.04;61.57;100426.52;123554;1102;104421;-80
2022/06/26 01:46:58;;;;;;;17.23;9.37;;;;;;;17.95;62.00;100424.73;123567;1102;104476;-79
2022/06/26 01:49:37;;;;;;;16.70;8.67;;;;;;;17.89;62.68;100435.31;123613;1102;104428;-78
2022/06/26 01:52:13;;;;;;;19.57;9.10;;;;;;;17.82;62.76;100428.16;123203;1102;104504;-80
2022/06/26 01:54:44;;;;;;;15.63;8.40;;;;;;;17.76;61.93;100423.73;123533;1102;104431;-81
2022/06/26 01:57:16;;;;;;;15.07;8.90;;;;;;;17.73;62.70;100422.80;123601;1102;110227;-80
2022/06/26 01:59:50;;;;;;;16.17;8.10;;;;;;;17.74;62.97;100430.77;123552;1102;104395;-80
2022/06/26 02:02:25;;;;;;;18.87;9.43;;;;;;;17.71;63.62;100425.45;123270;1102;104499;-81
2022/06/26 02:04:59;;;;;;;19.73;9.13;;;;;;;17.70;63.10;100438.70;123424;1102;104271;-80
2022/06/26 02:07:31;;;;;;;;;;;;;;;17.67;63.20;100439.60;123741;1102;104349;-80
2022/06/26 02:15:43;;;;;;;20.80;9.10;;;;;;;17.61;63.69;100437.79;123872;1099;104316;-80
2022/06/26 02:18:15;;;;;;;19.20;9.20;;;;;;;17.57;63.61;100438.64;123485;1099;104396;-82
2022/06/26 02:20:47;;;;;;;18.83;9.60;;;;;;;17.55;64.28;100437.75;123529;1099;104408;-80
2022/06/26 02:23:19;;;;;;;17.63;9.70;;;;;;;17.53;64.15;100436.87;123593;1102;104433;-81
2022/06/26 02:25:50;;;;;;;19.77;9.10;;;;;;;17.50;63.54;100439.50;123772;1102;104348;-79
2022/06/26 02:28:22;;;;;;;19.20;8.73;;;;;;;17.50;64.51;100439.50;123740;1102;104333;-81
2022/06/26 02:30:55;;;;;;;17.83;9.60;;;;;;;17.51;64.94;100437.72;123834;1102;104363;-81
2022/06/26 02:33:32;;;;;;;18.90;8.87;;;;;;;17.50;64.04;100447.45;123827;1102;104338;-80
2022/06/26 02:36:07;;;;;;;17.47;8.83;;;;;;;17.49;64.65;100450.09;123787;1103;104338;-80
2022/06/26 02:38:37;;;;;;;;;;;;;;;17.46;64.69;100453.61;123781;1102;104341;-80
2022/06/26 02:41:08;;;;;;;16.77;9.00;;;;;;;17.46;64.63;100456.26;123463;1101;104475;-81
2022/06/26 02:43:41;;;;;;;14.85;8.50;;;;;;;17.44;65.25;100452.72;123573;1102;104230;-80
2022/06/26 02:46:13;;;;;;;15.33;8.13;;;;;;;17.44;65.18;100450.06;123289;1102;104251;-80
2022/06/26 02:48:45;;;;;;;16.63;8.60;;;;;;;17.45;65.97;100458.91;123510;1102;104494;-80
2022/06/26 02:51:16;;;;;;;18.97;8.80;;;;;;;17.42;65.05;100454.45;123656;1102;104434;-81
2022/06/26 02:53:48;;;;;;;17.00;8.67;;;;;;;17.39;65.09;100454.42;123576;1102;104450;-80
2022/06/26 02:56:21;;;;;;;14.03;7.83;;;;;;;17.38;65.67;100450.90;123889;1099;104348;-81
2022/06/26 02:58:53;;;;;;;17.30;8.80;;;;;;;17.39;65.78;100455.34;123966;1099;104335;-80
2022/06/26 03:01:25;;;;;;;17.63;8.67;;;;;;;17.39;65.45;100454.42;123641;1099;104342;-81
2022/06/26 03:04:02;;;;;;;14.93;8.60;;;;;;;17.40;65.42;100456.22;123647;1099;104300;-80
2022/06/26 03:06:37;;;;;;;14.13;8.53;;;;;;;17.42;65.61;100452.71;123638;1101;104327;-81
2022/06/26 03:09:10;;;;;;;16.90;8.50;;;;;;;17.46;65.65;100458.03;123677;1099;104415;-81
2022/06/26 03:11:42;;;;;;;16.97;8.93;;;;;;;17.47;65.86;100452.74;123519;1099;104441;-80
2022/06/26 03:14:17;;;;;;;17.87;8.90;;;;;;;17.49;66.39;100461.59;123591;1099;104418;-80
2022/06/26 03:16:56;;;;;;;16.67;8.43;;;;;;;17.51;66.35;100466.91;123603;1102;104278;-79
2022/06/26 03:19:28;;;;;;;17.60;8.00;;;;;;;17.51;66.49;100469.55;123516;1102;104428;-81
2022/06/26 03:22:01;;;;;;;18.93;8.93;;;;;;;17.51;66.47;100472.20;123421;1102;104277;-79
2022/06/26 03:24:33;;;;;;;18.80;9.30;;;;;;;17.49;66.79;100471.32;123463;1099;104427;-80
2022/06/26 03:27:06;;;;;;;17.07;8.57;;;;;;;17.47;67.19;100468.66;123421;1102;104348;-79
2022/06/26 03:29:38;;;;;;;16.87;8.57;;;;;;;17.47;66.76;100473.05;123529;1102;104421;-80
2022/06/26 03:32:11;;;;;;;17.42;8.40;;;;;;;17.53;67.14;100479.31;123533;1099;104443;-81
2022/06/26 03:34:51;;;;;;;17.70;8.70;;;;;;;17.56;66.69;100478.42;123374;1102;104424;-80
2022/06/26 03:37:23;;;;;;;17.60;8.37;;;;;;;17.61;66.95;100482.89;123325;1102;104268;-80
2022/06/26 03:39:56;;;;;;;16.73;8.07;;;;;;;17.63;67.11;100488.21;123359;1102;104392;-80
2022/06/26 03:42:28;;;;;;;17.52;9.38;;;;;;;17.64;66.87;100489.09;123539;1102;104284;-80
2022/06/26 03:45:00;;;;;;;17.40;8.85;;;;;;;17.69;66.99;100495.34;123312;1099;104393;-80
2022/06/26 03:47:33;;;;;;;15.53;8.37;;;;;;;17.73;66.98;100494.45;123505;1099;104389;-80
2022/06/26 03:50:10;;;;;;;17.57;9.05;;;;;;;17.78;66.93;100495.39;123535;1099;104345;-80
2022/06/26 03:52:41;;;;;;;19.07;9.20;;;;;;;17.83;67.27;100498.95;123413;1102;104348;-80
2022/06/26 03:55:14;;;;;;;18.10;9.13;;;;;;;17.87;67.34;100491.89;123452;1102;104309;-81
2022/06/26 03:57:45;;;;;;;19.17;9.97;;;;;;;17.93;67.46;100490.18;123592;1102;104312;-81
2022/06/26 04:00:17;;;;;;;18.03;9.10;;;;;;;17.98;67.14;100495.52;123698;1102;104370;-81
2022/06/26 04:02:49;;;;;;;17.53;8.80;;;;;;;18.07;67.11;100492.03;123588;1102;104303;-81
2022/06/26 04:05:29;;;;;;;17.57;8.63;;;;;;;18.14;66.99;100491.19;123531;1102;104242;-79
2022/06/26 04:08:01;;;;;;;;;;;;;;;18.19;68.24;100492.09;123282;1100;104421;-79
2022/06/26 04:10:38;;;;;;;16.70;8.57;;;;;;;18.24;67.31;100495.64;123225;1102;104408;-80
2022/06/26 04:13:16;;;;;;;19.00;8.50;;;;;;;18.29;67.64;100493.91;123419;1102;104412;-80
2022/06/26 04:15:48;;;;;;;16.65;8.75;;;;;;;18.38;67.36;100497.48;123406;1102;104326;-80
2022/06/26 04:18:20;;;;;;;16.90;8.33;;;;;;;18.44;67.48;100494.84;123460;1102;104834;-80
2022/06/26 04:20:51;;;;;;;15.57;7.90;;;;;;;18.51;67.46;100493.96;123407;1102;104427;-79
2022/06/26 04:23:23;;;;;;;16.30;8.27;;;;;;;18.58;67.50;100494.89;123938;1100;104414;-81
2022/06/26 04:25:57;;;;;;;16.77;8.20;;;;;;;18.68;67.39;100496.66;124022;1099;104264;-80
2022/06/26 04:28:29;;;;;;;15.90;7.60;;;;;;;18.78;67.37;100493.16;124458;1098;104271;-81
2022/06/26 04:31:03;;;;;;;14.67;7.83;;;;;;;18.86;67.40;100496.73;124156;1099;104262;-80
2022/06/26 04:33:37;;;;;;;15.70;8.20;;;;;;;18.96;67.32;100496.75;124521;1099;104270;-80
2022/06/26 04:36:12;;;;;;;15.27;7.70;;;;;;;19.04;67.39;100495.89;124098;1099;104288;-81
2022/06/26 04:38:44;;;;;;;14.57;7.63;;;;;;;19.14;67.25;100499.44;123779;1099;104402;-81
2022/06/26 04:41:35;;;;;;;14.63;7.53;;;;;;;19.22;67.28;100504.76;123765;1099;104274;-80
2022/06/26 04:44:08;;;;;;;12.77;7.70;;;;;;;19.29;67.45;100502.98;123761;1099;104274;-81
2022/06/26 04:46:41;;;;;;;14.30;7.12;;;;;;;19.36;67.55;100502.10;123493;1099;104377;-80
2022/06/26 04:49:12;;;;;;;16.00;7.60;;;;;;;19.44;67.15;100502.09;124032;1099;104245;-80
2022/06/26 04:51:44;;;;;;;13.97;7.03;;;;;;;19.51;67.72;100501.19;123639;1099;104428;-80
2022/06/26 04:54:28;;;;;;;15.95;7.40;;;;;;;19.58;67.00;100503.84;123994;1099;104316;-80
2022/06/26 04:56:59;;;;;;;14.07;7.10;;;;;;;19.65;67.61;100499.41;123925;1099;104340;-81
2022/06/26 04:59:31;;;;;;;13.77;7.40;;;;;;;19.71;67.84;100499.41;123889;1099;104348;-81
2022/06/26 05:02:10;;;;;;;14.03;6.90;;;;;;;19.79;67.48;100501.18;123947;1098;104265;-81
2022/06/26 05:05:02;;;;;;;15.38;7.00;;;;;;;19.87;66.65;100502.07;124049;1099;104360;-80
2022/06/26 05:07:56;;;;;;;14.00;7.37;;;;;;;19.93;67.04;100504.72;123856;1099;104690;-80
2022/06/26 05:10:28;;;;;;;14.03;6.97;;;;;;;20.00;66.85;100505.58;123559;1099;104290;-80
2022/06/26 05:13:00;;;;;;;11.67;6.70;;;;;;;20.13;67.21;100509.08;123516;1099;104205;-79
2022/06/26 05:15:39;;;;;;;12.73;6.47;;;;;;;20.19;67.76;100507.27;123778;1099;104404;-80
2022/06/26 05:18:11;;;;;;;;;;;;;;;20.31;67.49;100505.47;123475;1099;104271;-78
2022/06/26 05:20:43;;;;;;;14.80;6.60;;;;;;;20.43;66.96;100508.96;123547;1099;104335;-80
2022/06/26 05:23:14;;;;;;;13.00;6.60;;;;;;;20.56;67.20;100500.91;123480;1099;104930;-80
2022/06/26 05:26:06;;;;;;;10.63;6.33;;;;;;;20.77;66.40;100495.48;123520;1099;104708;-80
2022/06/26 05:28:38;;;;;;;14.30;6.40;;;;;;;20.89;67.48;100506.96;123533;1099;104354;-79
2022/06/26 05:31:11;;;;;;;11.23;6.80;;;;;;;20.98;66.95;100506.91;123830;1099;104268;-79
2022/06/26 05:33:45;;;;;;;13.50;6.60;;;;;;;21.07;67.01;100501.50;123855;1098;104271;-81
2022/06/26 05:36:17;;;;;;;12.23;6.50;;;;;;;21.17;66.50;100510.31;123861;1098;104351;-80
2022/06/26 05:38:49;;;;;;;13.23;6.53;;;;;;;21.29;66.71;100499.54;123761;1099;104262;-80
2022/06/26 05:41:21;;;;;;;12.57;6.33;;;;;;;21.45;66.13;100504.75;123497;1100;104329;-81
2022/06/26 05:43:53;;;;;;;11.37;5.90;;;;;;;21.60;66.38;100504.64;123557;1099;104376;-79
2022/06/26 05:46:24;;;;;;;16.53;6.30;;;;;;;21.68;66.58;100500.10;123804;1102;104384;-81
2022/06/26 05:48:58;;;;;;;14.50;6.20;;;;;;;21.73;66.11;100500.92;123527;1102;104233;-79
2022/06/26 05:51:36;;;;;;;10.70;6.00;;;;;;;21.76;66.05;100493.81;123620;1102;104424;-79
2022/06/26 05:54:12;;;;;;;13.63;6.00;;;;;;;21.77;65.67;100493.79;123593;1102;104510;-80
2022/06/26 05:57:05;;;;;;;;;;;;;;;21.75;65.37;100497.37;123353;1102;104431;-80
2022/06/26 06:00:00;;;;;;;10.72;6.08;;;;;;;21.77;65.70;100501.80;123490;1100;104303;-80
2022/06/26 06:02:50;;;;;;;11.63;5.70;;;;;;;21.77;65.72;100504.47;124018;1102;104242;-79
2022/06/26 06:05:25;;;;;;;8.93;5.57;;;;;;;21.79;65.87;100508.00;123401;1102;104454;-80
2022/06/26 06:07:58;;;;;;;10.73;5.50;;;;;;;21.83;65.67;100499.07;123608;1102;104450;-79
2022/06/26 06:10:32;;;;;;;10.57;5.47;;;;;;;21.86;65.30;100504.38;123448;1102;104599;-79
2022/06/26 06:13:04;;;;;;;16.93;8.37;;;;;;;21.89;65.58;100495.42;123781;1102;104270;-79
2022/06/26 06:15:38;;;;;;;11.57;5.63;;;;;;;21.89;65.22;100492.75;123799;1102;104415;-81
2022/06/26 06:18:11;;;;;;;11.00;5.75;;;;;;;21.97;65.43;100490.00;123804;1102;104500;-79
2022/06/26 06:20:45;;;;;;;10.40;5.90;;;;;;;22.01;65.44;100499.77;123360;1102;104331;-79
2022/06/26 06:23:17;;;;;;;11.63;5.73;;;;;;;22.06;65.67;100500.58;123308;1102;104398;-78
2022/06/26 06:25:48;;;;;;;10.33;5.70;;;;;;;22.10;65.34;100504.13;123204;1102;104349;-78
2022/06/26 06:28:20;;;;;;;9.30;5.25;;;;;;;22.15;64.43;100508.48;123259;1102;104434;-77
2022/06/26 06:30:52;;;;;;;9.63;5.50;;;;;;;22.22;64.46;100503.95;123302;1099;104469;-78
2022/06/26 06:33:27;;;;;;;13.33;5.77;;;;;;;22.27;64.44;100496.78;123358;1099;104443;-78
2022/06/26 06:36:02;;;;;;;13.07;5.47;;;;;;;22.34;64.66;100501.16;123326;1102;104996;-79
2022/06/26 06:38:35;;;;;;;12.65;5.42;;;;;;;22.43;64.27;100503.71;123572;1099;104417;-78
2022/06/26 06:41:10;;;;;;;9.73;5.33;;;;;;;22.54;64.66;100508.92;123742;1099;104370;-79
2022/06/26 06:43:59;;;;;;;12.50;5.45;;;;;;;22.70;64.70;100508.70;123528;1099;104287;-78
2022/06/26 06:46:33;;;;;;;11.60;5.90;;;;;;;22.86;64.13;100507.59;124131;1099;104265;-78
2022/06/26 06:49:21;;;;;;;8.87;5.07;;;;;;;23.06;63.99;100509.97;123427;1102;104249;-79
2022/06/26 06:51:59;;;;;;;12.00;5.13;;;;;;;23.26;63.41;100511.45;123787;1099;104408;-78
2022/06/26 06:54:33;;;;;;;9.80;5.40;;;;;;;23.44;63.25;100504.92;123527;1099;104259;-79
2022/06/26 06:57:06;;;;;;;11.03;4.90;;;;;;;23.67;62.58;100504.52;123653;1099;104667;-78
2022/06/26 06:59:38;;;;;;;10.85;4.75;;;;;;;23.90;62.46;100505.89;123366;1100;104312;-77
2022/06/26 07:02:11;;;;;;;10.27;5.53;;;;;;;24.01;61.61;100501.20;123614;1099;104645;-79
2022/06/26 07:04:45;;;;;;;12.93;5.37;;;;;;;24.14;61.96;100508.09;123811;1099;104272;-77
2022/06/26 07:07:19;;;;;;;11.35;5.12;;;;;;;24.30;61.49;100508.66;123335;1099;104325;-80
2022/06/26 07:09:52;;;;;;;8.37;4.93;;;;;;;24.39;60.32;100504.91;123388;1099;104651;-78
2022/06/26 07:12:27;;;;;;;11.30;5.83;;;;;;;24.46;59.91;100506.52;123324;1099;104278;-77
2022/06/26 07:15:25;;;;;;;9.30;5.55;;;;;;;24.57;60.12;100509.00;123664;1099;104336;-78
2022/06/26 07:17:58;;;;;;;10.27;5.23;;;;;;;24.61;59.16;100505.34;123755;1099;104755;-77
2022/06/26 07:20:30;;;;;;;11.93;5.20;;;;;;;24.55;59.20;100506.32;123391;1099;104331;-78
2022/06/26 07:23:02;;;;;;;7.80;5.40;;;;;;;24.48;59.25;100501.13;123337;1099;104424;-78
2022/06/26 07:25:40;;;;;;;13.43;5.33;;;;;;;24.43;59.03;100509.27;123773;1102;104364;-79
2022/06/26 07:28:12;;;;;;;9.80;4.80;;;;;;;24.37;59.09;100499.58;123627;1102;104361;-76
2022/06/26 07:30:44;;;;;;;11.65;5.00;;;;;;;24.26;58.47;100504.26;123425;1099;104334;-78
2022/06/26 07:36:08;;;;;;;11.40;5.40;;;;;;;24.05;58.71;100505.59;123325;1099;104350;-77
2022/06/26 07:38:43;;;;;;;8.47;4.93;;;;;;;23.97;58.43;100505.75;123320;1099;104313;-80
2022/06/26 07:41:17;;;;;;;9.23;4.77;;;;;;;23.96;58.62;100506.65;123857;1098;104334;-78
2022/06/26 07:43:49;;;;;;;11.63;4.90;;;;;;;23.94;58.16;100513.84;123320;1099;104354;-78
2022/06/26 07:46:21;;;;;;;11.20;4.90;;;;;;;23.96;58.24;100509.33;123347;1099;104274;-79
2022/06/26 07:48:54;;;;;;;10.53;5.28;;;;;;;24.03;58.47;100518.16;123487;1099;104312;-80
2022/06/26 07:51:27;;;;;;;14.07;5.00;;;;;;;24.00;58.16;100515.53;123390;1100;104332;-77
2022/06/26 07:54:00;;;;;;;8.90;4.70;;;;;;;24.00;58.42;100516.41;123537;1099;104325;-78
2022/06/26 07:56:34;;;;;;;9.60;4.85;;;;;;;24.00;57.95;100515.53;123359;1099;104322;-77
2022/06/26 07:59:07;;;;;;;10.33;5.00;;;;;;;23.95;57.83;100528.12;123687;1099;104749;-78
2022/06/26 08:01:39;;;;;;;11.07;4.83;;;;;;;23.97;58.26;100520.95;123660;1099;104248;-78
2022/06/26 08:04:14;;;;;;;9.30;4.50;;;;;;;24.05;58.25;100519.88;123724;1099;104268;-77
2022/06/26 08:06:47;;;;;;;9.80;4.95;;;;;;;24.11;58.42;100518.00;124126;1099;104357;-78
2022/06/26 08:09:20;;;;;;;;;;;;;;;24.07;58.41;100522.52;124103;1099;104232;-78
2022/06/26 08:11:53;;;;;;;12.33;4.97;;;;;;;24.07;58.45;100527.01;123777;1100;104241;-78
2022/06/26 08:14:29;;;;;;;7.50;4.60;;;;;;;24.07;58.32;100535.05;124009;1099;105671;-79
2022/06/26 08:17:03;;;;;;;9.43;4.78;;;;;;;24.02;58.29;100529.78;123685;1099;104465;-78
2022/06/26 08:19:36;;;;;;;10.27;5.00;;;;;;;23.96;57.96;100540.61;123712;1099;104300;-78
2022/06/26 08:22:08;;;;;;;10.67;4.93;;;;;;;23.83;57.89;100530.09;123723;1099;104367;-78
2022/06/26 08:24:41;;;;;;;10.35;5.30;;;;;;;23.73;58.46;100539.20;123719;1099;104226;-78
2022/06/26 08:27:14;;;;;;;12.40;6.27;;;;;;;23.54;59.10;100538.64;123734;1099;104268;-77
2022/06/26 08:29:47;;;;;;;11.35;5.60;;;;;;;23.27;59.65;100546.23;123345;1099;104306;-78
2022/06/26 08:32:20;;;;;;;11.43;5.57;;;;;;;23.06;59.84;100558.14;123381;1099;104395;-77
2022/06/26 08:34:54;;;;;;;11.10;5.50;;;;;;;22.87;59.91;100560.17;123556;1099;104264;-79
2022/06/26 08:37:27;;;;;;;9.47;5.40;;;;;;;22.69;60.24;100557.74;123556;1099;104248;-79
2022/06/26 08:39:59;;;;;;;12.68;5.40;;;;;;;22.55;60.18;100558.83;123383;1102;104401;-78
2022/06/26 08:42:33;;;;;;;14.77;5.43;;;;;;;22.48;60.71;100556.25;123591;1099;104249;-78
2022/06/26 08:45:03;;;;;;;;;;;;;;;22.38;60.73;100551.02;123293;1099;104303;-78
2022/06/26 08:47:40;;;;;;;10.67;5.30;;;;;;;22.37;61.07;100551.03;123333;1099;104245;-79
2022/06/26 08:50:15;;;;;;;10.70;5.10;;;;;;;22.36;60.68;100555.50;123663;1099;104748;-79
2022/06/26 08:52:51;;;;;;;10.33;5.53;;;;;;;22.40;61.15;100559.02;123663;1099;104324;-79
2022/06/26 08:55:26;;;;;;;12.87;5.93;;;;;;;22.49;61.10;100558.91;123557;1102;104380;-78
2022/06/26 08:58:01;;;;;;;14.47;5.80;;;;;;;22.60;61.41;100553.42;123465;1099;104374;-78
2022/06/26 09:00:32;;;;;;;14.73;5.67;;;;;;;22.71;61.76;100561.31;123936;1099;104239;-78
2022/06/26 09:03:07;;;;;;;12.97;5.80;;;;;;;22.83;61.65;100566.49;123725;1099;104293;-78
2022/06/26 09:05:42;;;;;;;14.10;6.83;;;;;;;23.00;61.85;100560.00;123562;1097;104331;-78
2022/06/26 09:08:22;;;;;;;14.10;6.70;;;;;;;23.15;62.43;100558.03;123522;1102;104169;-80
2022/06/26 09:10:53;;;;;;;12.25;6.10;;;;;;;23.33;62.09;100555.97;123653;1099;104436;-79
2022/06/26 09:13:36;;;;;;;12.43;5.70;;;;;;;23.53;62.00;100549.38;123549;1099;104219;-76
2022/06/26 09:16:08;;;;;;;13.50;6.20;;;;;;;23.78;61.96;100550.73;123659;1099;110504;-78
2022/06/26 09:18:41;;;;;;;10.10;5.57;;;;;;;24.00;62.04;100551.25;123686;1099;104207;-77
2022/06/26 09:21:12;;;;;;;;;;;;;;;24.22;61.23;100540.98;123627;1099;104249;-77
2022/06/26 09:23:54;;;;;;;11.10;5.70;;;;;;;24.40;61.30;100542.42;123648;1099;104379;-79
2022/06/26 09:26:26;;;;;;;11.43;5.40;;;;;;;24.59;60.49;100547.43;123592;1099;104373;-77
2022/06/26 09:28:57;;;;;;;11.03;5.23;;;;;;;24.84;60.40;100533.44;123631;1099;104367;-80
2022/06/26 09:31:29;;;;;;;10.13;5.30;;;;;;;25.08;60.06;100532.88;123658;1099;104300;-78
2022/06/26 09:34:00;;;;;;;11.40;5.20;;;;;;;25.29;59.68;100534.20;123547;1099;104345;-79
2022/06/26 09:36:32;;;;;;;9.23;5.13;;;;;;;25.39;59.05;100531.29;123244;1100;104319;-78
2022/06/26 09:39:06;;;;;;;9.80;5.03;;;;;;;25.34;58.69;100530.50;123277;1099;104328;-78
2022/06/26 09:41:39;;;;;;;12.37;4.87;;;;;;;25.28;58.45;100519.00;123797;1099;104264;-78
2022/06/26 09:44:20;;;;;;;11.30;5.53;;;;;;;25.36;58.40;100523.31;123577;1099;104316;-79
2022/06/26 09:46:52;;;;;;;9.03;5.33;;;;;;;25.44;57.60;100519.48;124335;1099;118990;-79
2022/06/26 09:49:24;;;;;;;9.37;5.00;;;;;;;25.64;57.68;100518.97;124054;1099;104332;-78
2022/06/26 09:51:56;;;;;;;8.57;4.73;;;;;;;25.68;57.02;100510.83;123718;1099;104312;-78
2022/06/26 09:54:27;;;;;;;8.63;5.17;;;;;;;25.63;56.93;100519.02;123452;1099;104243;-78
2022/06/26 09:56:59;;;;;;;7.50;4.30;;;;;;;25.51;57.10;100509.48;123636;1099;104315;-77
2022/06/26 09:59:31;;;;;;;9.47;4.77;;;;;;;25.46;56.38;100504.23;123713;1099;104236;-79
2022/06/26 10:07:49;;;;;;;9.20;4.83;;;;;;;25.90;56.08;100501.27;123614;1099;110620;-78
2022/06/26 10:10:24;;;;;;;8.53;4.90;;;;;;;25.93;55.38;100503.88;123688;1099;104198;-80
2022/06/26 10:12:57;;;;;;;7.13;4.70;;;;;;;25.90;55.72;100495.90;123747;1099;104357;-79
2022/06/26 10:15:34;;;;;;;12.97;4.73;;;;;;;25.86;55.33;100491.52;123521;1099;104475;-80
2022/06/26 10:18:24;;;;;;;8.70;4.50;;;;;;;25.91;55.59;100497.64;123497;1099;104508;-80
2022/06/26 10:20:58;;;;;;;7.20;4.30;;;;;;;25.94;55.30;100492.18;123796;1099;104271;-80
2022/06/26 10:23:37;;;;;;;14.90;7.77;;;;;;;25.94;55.73;100494.00;123774;1099;104248;-79
2022/06/26 10:26:16;;;;;;;10.90;4.50;;;;;;;25.88;55.50;100496.86;123538;1099;104315;-80
2022/06/26 10:29:05;;;;;;;9.97;4.43;;;;;;;25.69;55.49;100489.30;123572;1099;104432;-78
2022/06/26 10:31:53;;;;;;;6.67;3.77;;;;;;;25.61;55.85;100494.00;123289;1099;104347;-77
2022/06/26 10:34:27;;;;;;;7.13;3.60;;;;;;;25.46;56.25;100490.80;123652;1099;104236;-77
2022/06/26 10:37:04;;;;;;;8.15;3.75;;;;;;;25.37;56.38;100491.05;123563;1099;104334;-77
2022/06/26 10:39:50;;;;;;;7.77;4.50;;;;;;;25.46;56.91;100488.12;123548;1098;104277;-78
2022/06/26 10:45:20;;;;;;;7.43;4.30;;;;;;;25.77;57.18;100483.71;123195;1099;104348;-77
2022/06/26 10:47:53;;;;;;;8.57;4.90;;;;;;;25.81;56.52;100475.52;123640;1099;104249;-79
2022/06/26 10:50:42;;;;;;;7.57;4.30;;;;;;;26.00;56.91;100472.35;123689;1099;104313;-78
2022/06/26 10:53:22;;;;;;;6.63;4.20;;;;;;;26.06;56.63;100476.68;123666;1099;104285;-79
2022/06/26 10:55:56;;;;;;;4.93;4.00;;;;;;;26.06;56.90;100473.99;123622;1099;104239;-79
2022/06/26 10:58:30;;;;;;;8.47;4.70;;;;;;;26.03;56.40;100466.02;123901;1099;104341;-79
2022/06/26 11:01:05;;;;;;;7.13;4.63;;;;;;;25.90;54.79;100468.11;123623;1099;104267;-80
2022/06/26 11:03:38;;;;;;;6.30;3.90;;;;;;;25.81;55.07;100467.46;123852;1099;104316;-79
2022/06/26 11:06:11;;;;;;;5.40;3.50;;;;;;;25.78;54.45;100467.55;123901;1099;104284;-79
2022/06/26 11:08:47;;;;;;;5.60;3.40;;;;;;;25.72;54.06;100473.09;123789;1098;108067;-77
2022/06/26 11:11:30;;;;;;;5.40;3.60;;;;;;;25.76;54.35;100468.53;123985;1098;104326;-79
2022/06/26 11:14:05;;;;;;;5.85;3.42;;;;;;;25.78;53.82;100477.42;124062;1099;104357;-78
2022/06/26 11:16:41;;;;;;;6.70;3.90;;;;;;;25.64;53.97;100475.11;123548;1099;104384;-79
2022/06/26 11:19:24;;;;;;;7.90;3.43;;;;;;;25.56;53.81;100471.76;124067;1099;118898;-79
2022/06/26 11:22:06;;;;;;;5.13;3.70;;;;;;;25.35;54.12;100471.37;124159;1099;104444;-79
2022/06/26 11:24:48;;;;;;;6.63;3.50;;;;;;;25.15;54.00;100484.41;123721;1099;104262;-79
2022/06/26 11:27:23;;;;;;;7.30;3.60;;;;;;;24.87;54.84;100477.02;123773;1099;104299;-77
2022/06/26 11:29:55;;;;;;;7.90;3.80;;;;;;;24.64;54.59;100488.31;123559;1099;104239;-79
2022/06/26 11:32:29;;;;;;;15.20;5.13;;;;;;;24.08;58.70;100492.13;123876;1099;104394;-76
2022/06/26 11:35:01;;;;;;;18.37;5.10;;;;;;;23.13;57.85;100502.75;123820;1099;104374;-76
2022/06/26 11:37:36;;;;;;;11.30;4.10;;;;;;;22.66;59.51;100504.30;123474;1099;104236;-76
2022/06/26 11:40:15;;;;;;;11.70;5.10;;;;;;;22.32;59.96;100502.11;123563;1099;104257;-75
2022/06/26 11:42:47;;;;;;;11.20;4.67;;;;;;;22.20;60.98;100495.08;123734;1099;104241;-76
2022/06/26 11:45:25;;;;;;;11.30;4.95;;;;;;;22.21;61.08;100496.86;123529;1099;104252;-77
2022/06/26 11:47:56;;;;;;;8.37;4.80;;;;;;;22.29;61.47;100502.98;123666;1099;104408;-78
2022/06/26 11:50:33;;;;;;;13.70;5.30;;;;;;;22.40;61.92;100500.20;123654;1099;104191;-78
2022/06/26 11:53:06;;;;;;;11.20;5.00;;;;;;;22.55;62.40;100496.45;123400;1099;104404;-77